createdAt,value
2017-05-08T00:00:32.298Z,0
2017-05-08T00:01:32.286Z,0
2017-05-08T00:02:32.241Z,0
2017-05-08T00:03:32.269Z,0
2017-05-08T00:04:32.195Z,0
2017-05-08T00:05:32.173Z,0
2017-05-08T00:06:31.857Z,0
2017-05-08T00:07:32.129Z,0
2017-05-08T00:08:32.119Z,0
2017-05-08T00:09:32.089Z,0
2017-05-08T00:10:32.060Z,0
2017-05-08T00:11:32.069Z,0
2017-05-08T00:12:32.011Z,0
2017-05-08T00:13:31.719Z,0
2017-05-08T00:14:31.666Z,0
2017-05-08T00:15:31.999Z,0
2017-05-08T00:16:31.927Z,0
2017-05-08T00:17:31.893Z,0
2017-05-08T00:18:31.880Z,0
2017-05-08T00:19:31.894Z,0
2017-05-08T00:20:31.532Z,0
2017-05-08T00:21:31.806Z,0
2017-05-08T00:22:31.535Z,0
2017-05-08T00:23:31.467Z,0
2017-05-08T00:24:32.737Z,0
2017-05-08T00:25:31.734Z,0
2017-05-08T00:26:31.398Z,0
2017-05-08T00:27:31.663Z,0
2017-05-08T00:28:31.648Z,0
2017-05-08T00:29:31.699Z,0
2017-05-08T00:30:31.331Z,0
2017-05-08T00:31:31.580Z,0
2017-05-08T00:32:31.550Z,0
2017-05-08T00:33:31.524Z,0
2017-05-08T00:34:31.543Z,0
2017-05-08T00:35:31.489Z,0
2017-05-08T00:36:31.502Z,0
2017-05-08T00:37:31.485Z,0
2017-05-08T00:38:31.118Z,0
2017-05-08T00:39:31.100Z,0
2017-05-08T00:40:31.363Z,0
2017-05-08T00:41:31.371Z,0
2017-05-08T00:42:31.033Z,0
2017-05-08T00:43:31.294Z,0
2017-05-08T00:44:31.273Z,0
2017-05-08T00:45:31.001Z,0
2017-05-08T00:46:30.964Z,0
2017-05-08T00:47:31.229Z,0
2017-05-08T00:48:31.184Z,0
2017-05-08T00:49:31.167Z,0
2017-05-08T00:50:30.875Z,0
2017-05-08T00:51:31.131Z,0
2017-05-08T00:52:30.791Z,0
2017-05-08T00:53:31.063Z,0
2017-05-08T00:54:30.772Z,0
2017-05-08T00:55:31.027Z,0
2017-05-08T00:56:30.997Z,0
2017-05-08T00:57:30.980Z,0
2017-05-08T00:58:30.715Z,0
2017-05-08T00:59:30.630Z,0
2017-05-08T01:00:30.913Z,0
2017-05-08T01:01:30.908Z,0
2017-05-08T01:02:30.868Z,0
2017-05-08T01:03:30.850Z,0
2017-05-08T01:04:30.828Z,0
2017-05-08T01:05:30.801Z,0
2017-05-08T01:06:30.758Z,0
2017-05-08T01:07:30.741Z,0
2017-05-08T01:08:30.735Z,0
2017-05-08T01:09:30.700Z,0
2017-05-08T01:10:30.366Z,0
2017-05-08T01:11:30.675Z,0
2017-05-08T01:12:30.620Z,0
2017-05-08T01:13:30.657Z,0
2017-05-08T01:14:30.572Z,0
2017-05-08T01:15:30.612Z,0
2017-05-08T01:16:30.533Z,0
2017-05-08T01:17:30.509Z,0
2017-05-08T01:18:30.537Z,0
2017-05-08T01:19:30.209Z,0
2017-05-08T01:20:30.447Z,0
2017-05-08T01:21:30.420Z,0
2017-05-08T01:22:30.389Z,0
2017-05-08T01:23:30.665Z,0
2017-05-08T01:24:30.652Z,0
2017-05-08T01:25:30.325Z,0
2017-05-08T01:26:30.008Z,0
2017-05-08T01:27:30.274Z,0
2017-05-08T01:28:30.252Z,0
2017-05-08T01:29:30.232Z,0
2017-05-08T01:30:30.209Z,0
2017-05-08T01:31:30.177Z,0
2017-05-08T01:32:30.189Z,0
2017-05-08T01:33:30.131Z,0
2017-05-08T01:34:29.811Z,0
2017-05-08T01:35:30.092Z,0
2017-05-08T01:36:30.063Z,0
2017-05-08T01:37:30.042Z,0
2017-05-08T01:38:30.022Z,0
2017-05-08T01:39:30.040Z,0
2017-05-08T01:40:29.980Z,0
2017-05-08T01:41:29.951Z,0
2017-05-08T01:42:29.956Z,0
2017-05-08T01:43:29.894Z,0
2017-05-08T01:44:29.883Z,0
2017-05-08T01:45:30.153Z,0
2017-05-08T01:46:29.844Z,0
2017-05-08T01:47:29.814Z,0
2017-05-08T01:48:29.785Z,0
2017-05-08T01:49:29.768Z,0
2017-05-08T01:50:29.778Z,0
2017-05-08T01:51:29.713Z,0
2017-05-08T01:52:29.700Z,0
2017-05-08T01:53:29.663Z,0
2017-05-08T01:54:29.645Z,0
2017-05-08T01:55:29.622Z,0
2017-05-08T01:56:29.598Z,0
2017-05-08T01:57:29.582Z,0
2017-05-08T01:58:29.551Z,0
2017-05-08T01:59:29.532Z,0
2017-05-08T02:00:29.506Z,0
2017-05-08T02:01:29.527Z,0
2017-05-08T02:02:29.460Z,0
2017-05-08T02:03:29.436Z,0
2017-05-08T02:04:29.411Z,0
2017-05-08T02:05:29.394Z,0
2017-05-08T02:06:29.067Z,0
2017-05-08T02:07:29.347Z,0
2017-05-08T02:08:29.318Z,0
2017-05-08T02:09:29.291Z,0
2017-05-08T02:10:29.321Z,0
2017-05-08T02:11:28.998Z,0
2017-05-08T02:12:29.221Z,0
2017-05-08T02:13:29.198Z,0
2017-05-08T02:14:29.233Z,0
2017-05-08T02:15:29.154Z,0
2017-05-08T02:16:29.133Z,0
2017-05-08T02:17:29.143Z,0
2017-05-08T02:18:29.084Z,0
2017-05-08T02:19:29.113Z,0
2017-05-08T02:20:29.045Z,0
2017-05-08T02:21:29.017Z,0
2017-05-08T02:22:29.048Z,0
2017-05-08T02:23:28.968Z,0
2017-05-08T02:24:28.993Z,0
2017-05-08T02:25:28.926Z,0
2017-05-08T02:26:28.900Z,0
2017-05-08T02:27:28.923Z,0
2017-05-08T02:28:28.854Z,0
2017-05-08T02:29:28.837Z,0
2017-05-08T02:30:28.808Z,0
2017-05-08T02:31:28.787Z,0
2017-05-08T02:32:28.763Z,0
2017-05-08T02:33:28.446Z,0
2017-05-08T02:34:28.721Z,0
2017-05-08T02:35:28.691Z,0
2017-05-08T02:36:28.690Z,0
2017-05-08T02:37:28.647Z,0
2017-05-08T02:38:28.623Z,0
2017-05-08T02:39:28.602Z,0
2017-05-08T02:40:28.581Z,0
2017-05-08T02:41:28.855Z,0
2017-05-08T02:42:28.521Z,0
2017-05-08T02:43:28.516Z,0
2017-05-08T02:44:28.487Z,0
2017-05-08T02:45:28.459Z,0
2017-05-08T02:46:28.139Z,0
2017-05-08T02:47:28.417Z,0
2017-05-08T02:48:28.385Z,0
2017-05-08T02:49:28.369Z,0
2017-05-08T02:50:28.351Z,0
2017-05-08T02:51:28.326Z,0
2017-05-08T02:52:28.303Z,0
2017-05-08T02:53:28.274Z,0
2017-05-08T02:54:28.302Z,0
2017-05-08T02:55:28.228Z,0
2017-05-08T02:56:28.206Z,0
2017-05-08T02:57:28.178Z,0
2017-05-08T02:58:28.174Z,0
2017-05-08T02:59:28.133Z,0
2017-05-08T03:00:28.117Z,0
2017-05-08T03:01:28.088Z,0
2017-05-08T03:02:28.120Z,0
2017-05-08T03:03:28.054Z,0
2017-05-08T03:04:28.087Z,0
2017-05-08T03:05:27.999Z,0
2017-05-08T03:06:27.974Z,0
2017-05-08T03:07:27.959Z,0
2017-05-08T03:08:27.931Z,0
2017-05-08T03:09:27.907Z,0
2017-05-08T03:10:27.897Z,0
2017-05-08T03:11:27.901Z,0
2017-05-08T03:12:27.841Z,0
2017-05-08T03:13:27.815Z,0
2017-05-08T03:14:27.880Z,0
2017-05-08T03:15:27.473Z,0
2017-05-08T03:16:27.747Z,0
2017-05-08T03:17:27.725Z,0
2017-05-08T03:18:27.701Z,0
2017-05-08T03:19:27.681Z,4
2017-05-08T03:20:27.925Z,4
2017-05-08T03:21:27.634Z,0
2017-05-08T03:22:27.609Z,0
2017-05-08T03:23:27.795Z,4
2017-05-08T03:24:27.575Z,4
2017-05-08T03:25:27.544Z,4
2017-05-08T03:26:27.518Z,4
2017-05-08T03:27:27.494Z,4
2017-05-08T03:28:27.505Z,8
2017-05-08T03:29:27.450Z,4
2017-05-08T03:30:27.425Z,8
2017-05-08T03:31:27.397Z,4
2017-05-08T03:32:27.393Z,8
2017-05-08T03:33:27.356Z,8
2017-05-08T03:34:27.335Z,12
2017-05-08T03:35:27.308Z,16
2017-05-08T03:36:27.281Z,16
2017-05-08T03:37:27.258Z,20
2017-05-08T03:38:27.237Z,16
2017-05-08T03:39:27.226Z,20
2017-05-08T03:40:27.195Z,20
2017-05-08T03:41:27.170Z,24
2017-05-08T03:42:27.148Z,24
2017-05-08T03:43:27.127Z,24
2017-05-08T03:44:27.102Z,24
2017-05-08T03:45:27.076Z,28
2017-05-08T03:46:27.054Z,32
2017-05-08T03:47:27.102Z,32
2017-05-08T03:48:27.019Z,40
2017-05-08T03:49:26.983Z,44
2017-05-08T03:50:26.990Z,44
2017-05-08T03:51:26.937Z,44
2017-05-08T03:52:27.164Z,48
2017-05-08T03:53:26.904Z,52
2017-05-08T03:54:26.877Z,64
2017-05-08T03:55:26.845Z,68
2017-05-08T03:56:26.871Z,80
2017-05-08T03:57:26.804Z,88
2017-05-08T03:58:26.828Z,104
2017-05-08T03:59:26.763Z,120
2017-05-08T04:00:26.790Z,132
2017-05-08T04:01:26.711Z,140
2017-05-08T04:02:26.691Z,144
2017-05-08T04:03:26.677Z,148
2017-05-08T04:04:26.644Z,152
2017-05-08T04:05:26.616Z,152
2017-05-08T04:06:26.601Z,156
2017-05-08T04:07:26.576Z,164
2017-05-08T04:08:26.564Z,164
2017-05-08T04:09:26.527Z,176
2017-05-08T04:10:26.214Z,188
2017-05-08T04:11:26.485Z,204
2017-05-08T04:12:26.456Z,204
2017-05-08T04:13:26.436Z,204
2017-05-08T04:14:26.416Z,204
2017-05-08T04:15:26.388Z,220
2017-05-08T04:16:26.361Z,240
2017-05-08T04:17:26.344Z,244
2017-05-08T04:18:26.325Z,236
2017-05-08T04:19:26.295Z,248
2017-05-08T04:20:26.280Z,264
2017-05-08T04:21:26.259Z,284
2017-05-08T04:22:26.236Z,268
2017-05-08T04:23:26.213Z,296
2017-05-08T04:24:26.189Z,324
2017-05-08T04:25:26.166Z,356
2017-05-08T04:26:26.134Z,372
2017-05-08T04:27:26.107Z,368
2017-05-08T04:28:26.092Z,336
2017-05-08T04:29:25.769Z,332
2017-05-08T04:30:25.742Z,344
2017-05-08T04:31:26.023Z,380
2017-05-08T04:32:25.997Z,448
2017-05-08T04:33:25.734Z,504
2017-05-08T04:34:26.013Z,452
2017-05-08T04:35:25.934Z,472
2017-05-08T04:36:25.905Z,428
2017-05-08T04:37:25.885Z,400
2017-05-08T04:38:25.869Z,428
2017-05-08T04:39:25.894Z,360
2017-05-08T04:40:25.865Z,300
2017-05-08T04:41:25.790Z,272
2017-05-08T04:42:25.767Z,264
2017-05-08T04:43:25.800Z,284
2017-05-08T04:44:25.767Z,296
2017-05-08T04:45:25.699Z,316
2017-05-08T04:46:25.692Z,340
2017-05-08T04:47:25.649Z,368
2017-05-08T04:48:25.635Z,396
2017-05-08T04:49:25.602Z,432
2017-05-08T04:50:25.595Z,460
2017-05-08T04:51:25.564Z,488
2017-05-08T04:52:25.543Z,516
2017-05-08T04:53:25.512Z,520
2017-05-08T04:54:25.505Z,528
2017-05-08T04:55:25.473Z,560
2017-05-08T04:56:25.444Z,632
2017-05-08T04:57:25.121Z,660
2017-05-08T04:58:25.106Z,708
2017-05-08T04:59:25.380Z,716
2017-05-08T05:00:25.345Z,720
2017-05-08T05:01:25.326Z,840
2017-05-08T05:02:25.305Z,896
2017-05-08T05:03:25.280Z,1008
2017-05-08T05:04:25.259Z,1032
2017-05-08T05:05:25.285Z,1060
2017-05-08T05:06:24.612Z,1112
2017-05-08T05:07:25.198Z,1044
2017-05-08T05:08:25.172Z,1076
2017-05-08T05:09:25.141Z,1048
2017-05-08T05:10:25.124Z,1016
2017-05-08T05:11:25.090Z,1152
2017-05-08T05:12:25.078Z,1548
2017-05-08T05:13:25.047Z,1744
2017-05-08T05:14:25.019Z,1796
2017-05-08T05:15:25.001Z,1868
2017-05-08T05:16:25.033Z,1884
2017-05-08T05:17:24.947Z,1856
2017-05-08T05:18:24.938Z,1988
2017-05-08T05:19:24.905Z,2128
2017-05-08T05:20:25.139Z,2224
2017-05-08T05:21:25.163Z,2332
2017-05-08T05:22:24.832Z,2484
2017-05-08T05:23:24.810Z,2464
2017-05-08T05:24:24.787Z,2384
2017-05-08T05:25:24.761Z,2268
2017-05-08T05:26:24.744Z,2104
2017-05-08T05:27:24.728Z,1972
2017-05-08T05:28:24.691Z,1840
2017-05-08T05:29:24.670Z,1576
2017-05-08T05:30:24.341Z,1524
2017-05-08T05:31:24.620Z,1396
2017-05-08T05:32:24.608Z,1516
2017-05-08T05:33:24.582Z,1568
2017-05-08T05:34:24.561Z,1624
2017-05-08T05:35:24.530Z,1556
2017-05-08T05:36:24.501Z,1416
2017-05-08T05:37:24.484Z,1256
2017-05-08T05:38:24.160Z,1292
2017-05-08T05:39:24.433Z,1316
2017-05-08T05:40:23.806Z,1244
2017-05-08T05:41:24.446Z,1252
2017-05-08T05:42:24.060Z,1472
2017-05-08T05:43:24.386Z,1756
2017-05-08T05:44:24.318Z,1852
2017-05-08T05:45:24.287Z,1912
2017-05-08T05:46:24.278Z,2004
2017-05-08T05:47:24.253Z,2148
2017-05-08T05:48:24.223Z,2260
2017-05-08T05:49:24.197Z,2420
2017-05-08T05:50:24.175Z,2644
2017-05-08T05:51:24.145Z,2816
2017-05-08T05:52:24.122Z,3028
2017-05-08T05:53:24.103Z,3000
2017-05-08T05:54:24.083Z,2904
2017-05-08T05:55:23.452Z,2936
2017-05-08T05:56:24.039Z,2768
2017-05-08T05:57:24.256Z,2532
2017-05-08T05:58:23.993Z,2460
2017-05-08T05:59:23.965Z,2444
2017-05-08T06:00:23.993Z,2472
2017-05-08T06:01:23.918Z,2496
2017-05-08T06:02:23.880Z,2528
2017-05-08T06:03:23.864Z,2592
2017-05-08T06:04:23.941Z,2656
2017-05-08T06:05:23.864Z,2692
2017-05-08T06:06:23.797Z,2712
2017-05-08T06:07:23.476Z,2748
2017-05-08T06:08:23.748Z,2788
2017-05-08T06:09:23.722Z,2828
2017-05-08T06:10:23.710Z,2872
2017-05-08T06:11:23.678Z,2844
2017-05-08T06:12:23.656Z,2928
2017-05-08T06:13:23.668Z,3028
2017-05-08T06:14:23.611Z,3192
2017-05-08T06:15:23.653Z,3272
2017-05-08T06:16:23.556Z,3460
2017-05-08T06:17:23.537Z,3600
2017-05-08T06:18:23.514Z,3756
2017-05-08T06:19:23.483Z,4100
2017-05-08T06:20:23.162Z,4476
2017-05-08T06:21:23.439Z,4448
2017-05-08T06:22:23.417Z,4196
2017-05-08T06:23:23.417Z,4152
2017-05-08T06:24:23.369Z,3988
2017-05-08T06:25:23.350Z,3688
2017-05-08T06:26:23.327Z,3552
2017-05-08T06:27:23.308Z,3540
2017-05-08T06:28:23.280Z,3616
2017-05-08T06:29:22.960Z,3592
2017-05-08T06:30:23.240Z,3688
2017-05-08T06:31:23.204Z,3776
2017-05-08T06:32:23.197Z,3696
2017-05-08T06:33:23.162Z,3680
2017-05-08T06:34:22.865Z,3936
2017-05-08T06:35:22.807Z,4020
2017-05-08T06:36:23.087Z,3988
2017-05-08T06:37:23.063Z,3888
2017-05-08T06:38:23.077Z,3848
2017-05-08T06:39:23.277Z,4000
2017-05-08T06:40:23.022Z,4064
2017-05-08T06:41:22.978Z,4036
2017-05-08T06:42:22.958Z,4096
2017-05-08T06:43:22.925Z,4112
2017-05-08T06:44:22.906Z,4108
2017-05-08T06:45:22.887Z,3960
2017-05-08T06:46:22.854Z,3832
2017-05-08T06:47:22.835Z,4076
2017-05-08T06:48:22.816Z,4220
2017-05-08T06:49:22.787Z,4264
2017-05-08T06:50:22.756Z,4212
2017-05-08T06:51:22.738Z,4104
2017-05-08T06:52:22.712Z,3988
2017-05-08T06:53:22.435Z,3844
2017-05-08T06:54:22.671Z,3860
2017-05-08T06:55:22.652Z,3876
2017-05-08T06:56:22.620Z,3696
2017-05-08T06:57:22.602Z,3556
2017-05-08T06:58:22.581Z,3532
2017-05-08T06:59:22.553Z,3948
2017-05-08T07:00:22.529Z,4088
2017-05-08T07:01:22.516Z,4212
2017-05-08T07:02:22.198Z,4220
2017-05-08T07:03:22.510Z,4212
2017-05-08T07:04:22.487Z,4072
2017-05-08T07:05:22.421Z,3848
2017-05-08T07:06:22.390Z,4152
2017-05-08T07:07:22.370Z,4480
2017-05-08T07:08:22.344Z,4764
2017-05-08T07:09:22.332Z,4920
2017-05-08T07:10:22.301Z,5172
2017-05-08T07:11:22.278Z,5324
2017-05-08T07:12:22.266Z,5136
2017-05-08T07:13:22.233Z,5072
2017-05-08T07:14:22.208Z,5140
2017-05-08T07:15:21.881Z,5180
2017-05-08T07:16:22.198Z,5216
2017-05-08T07:17:22.141Z,5148
2017-05-08T07:18:22.120Z,5052
2017-05-08T07:19:22.096Z,5024
2017-05-08T07:20:22.335Z,5040
2017-05-08T07:21:22.051Z,5096
2017-05-08T07:22:22.019Z,5088
2017-05-08T07:23:22.007Z,5000
2017-05-08T07:24:21.976Z,4820
2017-05-08T07:25:21.655Z,4788
2017-05-08T07:26:21.928Z,4952
2017-05-08T07:27:21.906Z,4888
2017-05-08T07:28:21.882Z,5056
2017-05-08T07:29:21.869Z,5244
2017-05-08T07:30:21.837Z,5536
2017-05-08T07:31:21.507Z,6004
2017-05-08T07:32:21.792Z,6300
2017-05-08T07:33:21.471Z,6412
2017-05-08T07:34:21.744Z,6500
2017-05-08T07:35:21.730Z,6560
2017-05-08T07:36:21.707Z,6492
2017-05-08T07:37:21.682Z,6416
2017-05-08T07:38:21.653Z,6332
2017-05-08T07:39:21.333Z,6240
2017-05-08T07:40:21.656Z,6248
2017-05-08T07:41:21.593Z,6360
2017-05-08T07:42:21.568Z,6412
2017-05-08T07:43:21.549Z,6336
2017-05-08T07:44:21.513Z,6316
2017-05-08T07:45:21.492Z,6572
2017-05-08T07:46:21.475Z,6796
2017-05-08T07:47:21.446Z,6764
2017-05-08T07:48:21.426Z,6716
2017-05-08T07:49:21.405Z,6552
2017-05-08T07:50:21.373Z,6372
2017-05-08T07:51:21.361Z,6404
2017-05-08T07:52:21.336Z,6616
2017-05-08T07:53:21.320Z,6936
2017-05-08T07:54:21.294Z,6976
2017-05-08T07:55:21.266Z,6892
2017-05-08T07:56:21.245Z,6728
2017-05-08T07:57:21.229Z,6640
2017-05-08T07:58:21.203Z,6804
2017-05-08T07:59:21.171Z,6784
2017-05-08T08:00:21.150Z,6748
2017-05-08T08:01:20.829Z,7036
2017-05-08T08:02:21.103Z,7580
2017-05-08T08:03:21.089Z,8124
2017-05-08T08:04:21.068Z,8340
2017-05-08T08:05:21.036Z,8412
2017-05-08T08:06:21.016Z,8448
2017-05-08T08:07:20.998Z,8384
2017-05-08T08:08:20.979Z,8684
2017-05-08T08:09:20.961Z,9244
2017-05-08T08:10:20.928Z,9488
2017-05-08T08:11:20.911Z,9576
2017-05-08T08:12:20.885Z,9948
2017-05-08T08:13:20.864Z,10232
2017-05-08T08:14:20.833Z,9680
2017-05-08T08:15:20.812Z,9136
2017-05-08T08:16:20.790Z,9100
2017-05-08T08:17:20.775Z,9172
2017-05-08T08:18:20.750Z,9388
2017-05-08T08:19:20.783Z,9328
2017-05-08T08:20:20.701Z,10368
2017-05-08T08:21:20.681Z,11540
2017-05-08T08:22:20.689Z,12080
2017-05-08T08:23:20.634Z,12780
2017-05-08T08:24:20.610Z,12836
2017-05-08T08:25:20.586Z,12416
2017-05-08T08:26:20.597Z,12148
2017-05-08T08:27:20.544Z,11420
2017-05-08T08:28:20.553Z,9948
2017-05-08T08:29:20.202Z,8604
2017-05-08T08:30:20.474Z,7808
2017-05-08T08:31:20.454Z,7092
2017-05-08T08:32:20.582Z,6656
2017-05-08T08:33:20.418Z,6320
2017-05-08T08:34:20.388Z,5728
2017-05-08T08:35:20.363Z,5368
2017-05-08T08:36:20.344Z,5448
2017-05-08T08:37:20.561Z,5856
2017-05-08T08:38:19.694Z,6456
2017-05-08T08:39:20.277Z,7356
2017-05-08T08:40:20.250Z,7996
2017-05-08T08:41:20.224Z,8192
2017-05-08T08:42:20.201Z,8340
2017-05-08T08:43:20.187Z,8572
2017-05-08T08:44:20.164Z,8556
2017-05-08T08:45:20.153Z,8344
2017-05-08T08:46:20.122Z,8000
2017-05-08T08:47:20.097Z,7724
2017-05-08T08:48:19.778Z,7644
2017-05-08T08:49:20.064Z,7516
2017-05-08T08:50:20.027Z,7400
2017-05-08T08:51:20.009Z,7416
2017-05-08T08:52:19.984Z,7552
2017-05-08T08:53:19.966Z,7836
2017-05-08T08:54:19.982Z,8164
2017-05-08T08:55:19.913Z,8244
2017-05-08T08:56:19.894Z,8176
2017-05-08T08:57:19.866Z,8120
2017-05-08T08:58:19.900Z,7884
2017-05-08T08:59:19.827Z,7512
2017-05-08T09:00:19.802Z,7456
2017-05-08T09:01:19.783Z,7608
2017-05-08T09:02:19.754Z,7776
2017-05-08T09:03:19.736Z,7732
2017-05-08T09:04:19.725Z,7888
2017-05-08T09:05:19.750Z,7832
2017-05-08T09:06:19.366Z,7576
2017-05-08T09:07:19.701Z,7576
2017-05-08T09:08:19.683Z,7888
2017-05-08T09:09:19.598Z,8020
2017-05-08T09:10:19.605Z,7972
2017-05-08T09:11:19.808Z,7484
2017-05-08T09:12:19.535Z,6620
2017-05-08T09:13:19.217Z,6604
2017-05-08T09:14:19.490Z,7456
2017-05-08T09:15:19.468Z,7896
2017-05-08T09:16:19.444Z,8440
2017-05-08T09:17:19.418Z,8464
2017-05-08T09:18:19.104Z,7836
2017-05-08T09:19:19.381Z,7856
2017-05-08T09:20:19.362Z,8092
2017-05-08T09:21:19.326Z,7460
2017-05-08T09:22:19.368Z,7096
2017-05-08T09:23:18.985Z,7452
2017-05-08T09:24:19.270Z,7616
2017-05-08T09:25:18.941Z,7944
2017-05-08T09:26:19.216Z,8568
2017-05-08T09:27:19.206Z,9152
2017-05-08T09:28:19.175Z,9520
2017-05-08T09:29:19.205Z,9408
2017-05-08T09:30:19.135Z,9472
2017-05-08T09:31:18.805Z,9052
2017-05-08T09:32:19.089Z,8140
2017-05-08T09:33:18.763Z,7920
2017-05-08T09:34:19.040Z,8208
2017-05-08T09:35:19.027Z,8924
2017-05-08T09:36:18.694Z,8848
2017-05-08T09:37:18.981Z,7988
2017-05-08T09:38:18.962Z,7440
2017-05-08T09:39:18.934Z,7864
2017-05-08T09:40:18.929Z,9404
2017-05-08T09:41:18.882Z,10616
2017-05-08T09:42:18.866Z,10264
2017-05-08T09:43:18.858Z,8928
2017-05-08T09:44:18.842Z,7836
2017-05-08T09:45:18.807Z,7436
2017-05-08T09:46:18.772Z,7160
2017-05-08T09:47:19.004Z,7664
2017-05-08T09:48:18.729Z,9684
2017-05-08T09:49:18.706Z,11848
2017-05-08T09:50:18.928Z,12404
2017-05-08T09:51:18.359Z,13032
2017-05-08T09:52:18.641Z,13788
2017-05-08T09:53:18.617Z,14208
2017-05-08T09:54:18.590Z,14148
2017-05-08T09:55:18.604Z,14448
2017-05-08T09:56:18.547Z,15380
2017-05-08T09:57:18.556Z,16408
2017-05-08T09:58:18.515Z,17184
2017-05-08T09:59:18.487Z,16928
2017-05-08T10:00:17.864Z,15544
2017-05-08T10:01:18.485Z,13980
2017-05-08T10:02:18.414Z,12544
2017-05-08T10:03:18.395Z,11224
2017-05-08T10:04:18.681Z,10016
2017-05-08T10:05:18.355Z,8944
2017-05-08T10:06:18.324Z,7956
2017-05-08T10:07:18.558Z,7532
2017-05-08T10:08:18.307Z,7440
2017-05-08T10:09:17.970Z,7064
2017-05-08T10:10:18.242Z,6560
2017-05-08T10:11:18.233Z,6096
2017-05-08T10:12:18.206Z,5688
2017-05-08T10:13:18.170Z,5924
2017-05-08T10:14:18.156Z,6648
2017-05-08T10:15:18.132Z,7280
2017-05-08T10:16:18.153Z,7896
2017-05-08T10:17:18.130Z,8416
2017-05-08T10:18:18.119Z,9524
2017-05-08T10:19:18.046Z,11792
2017-05-08T10:20:18.018Z,14732
2017-05-08T10:21:18.040Z,17088
2017-05-08T10:22:18.021Z,17344
2017-05-08T10:23:17.948Z,17056
2017-05-08T10:24:17.929Z,17632
2017-05-08T10:25:17.908Z,19328
2017-05-08T10:26:17.932Z,21152
2017-05-08T10:27:17.863Z,22208
2017-05-08T10:28:17.839Z,22624
2017-05-08T10:29:17.823Z,20864
2017-05-08T10:30:17.500Z,17440
2017-05-08T10:31:17.488Z,15304
2017-05-08T10:32:17.751Z,14072
2017-05-08T10:33:17.735Z,12916
2017-05-08T10:34:17.710Z,12280
2017-05-08T10:35:17.685Z,12492
2017-05-08T10:36:17.673Z,13904
2017-05-08T10:37:17.646Z,14804
2017-05-08T10:38:17.325Z,14160
2017-05-08T10:39:17.609Z,14116
2017-05-08T10:40:17.577Z,15508
2017-05-08T10:41:17.553Z,17504
2017-05-08T10:42:17.595Z,19232
2017-05-08T10:43:17.518Z,21056
2017-05-08T10:44:17.494Z,21856
2017-05-08T10:45:17.476Z,22240
2017-05-08T10:46:17.440Z,21536
2017-05-08T10:47:17.432Z,20032
2017-05-08T10:48:17.458Z,19552
2017-05-08T10:49:17.084Z,19936
2017-05-08T10:50:17.065Z,21440
2017-05-08T10:51:17.337Z,23424
2017-05-08T10:52:17.328Z,25120
2017-05-08T10:53:17.296Z,25344
2017-05-08T10:54:17.278Z,24832
2017-05-08T10:55:17.256Z,24320
2017-05-08T10:56:17.256Z,23072
2017-05-08T10:57:17.217Z,22336
2017-05-08T10:58:17.199Z,20096
2017-05-08T10:59:16.873Z,18112
2017-05-08T11:00:17.145Z,15804
2017-05-08T11:01:17.143Z,14668
2017-05-08T11:02:16.812Z,14432
2017-05-08T11:03:17.091Z,14464
2017-05-08T11:04:17.068Z,14748
2017-05-08T11:05:17.045Z,13772
2017-05-08T11:06:16.422Z,11396
2017-05-08T11:07:17.008Z,9428
2017-05-08T11:08:16.990Z,8708
2017-05-08T11:09:17.021Z,8468
2017-05-08T11:10:16.939Z,8272
2017-05-08T11:11:16.925Z,8088
2017-05-08T11:12:16.909Z,7900
2017-05-08T11:13:16.877Z,7680
2017-05-08T11:14:16.921Z,7504
2017-05-08T11:15:16.541Z,7640
2017-05-08T11:16:16.810Z,7392
2017-05-08T11:17:16.801Z,7000
2017-05-08T11:18:16.479Z,6748
2017-05-08T11:19:16.458Z,6600
2017-05-08T11:20:16.731Z,6828
2017-05-08T11:21:16.708Z,7684
2017-05-08T11:22:16.698Z,8388
2017-05-08T11:23:16.669Z,8136
2017-05-08T11:24:16.659Z,7412
2017-05-08T11:25:16.328Z,6908
2017-05-08T11:26:16.605Z,7112
2017-05-08T11:27:16.580Z,7600
2017-05-08T11:28:16.262Z,7652
2017-05-08T11:29:16.552Z,7916
2017-05-08T11:30:16.525Z,8652
2017-05-08T11:31:16.497Z,8892
2017-05-08T11:32:16.169Z,8860
2017-05-08T11:33:16.509Z,8740
2017-05-08T11:34:16.426Z,8712
2017-05-08T11:35:16.406Z,8840
2017-05-08T11:36:16.383Z,8960
2017-05-08T11:37:16.365Z,9044
2017-05-08T11:38:16.357Z,9088
2017-05-08T11:39:16.355Z,9240
2017-05-08T11:40:16.022Z,9032
2017-05-08T11:41:16.281Z,8044
2017-05-08T11:42:15.950Z,7008
2017-05-08T11:43:16.237Z,6392
2017-05-08T11:44:15.910Z,6144
2017-05-08T11:45:16.190Z,6004
2017-05-08T11:46:16.165Z,5776
2017-05-08T11:47:16.252Z,5560
2017-05-08T11:48:16.118Z,5660
2017-05-08T11:49:16.107Z,5948
2017-05-08T11:50:15.774Z,6356
2017-05-08T11:51:16.057Z,6804
2017-05-08T11:52:16.032Z,7404
2017-05-08T11:53:16.006Z,7808
2017-05-08T11:54:15.394Z,7796
2017-05-08T11:55:15.666Z,7504
2017-05-08T11:56:15.634Z,7148
2017-05-08T11:57:15.935Z,7020
2017-05-08T11:58:15.599Z,7256
2017-05-08T11:59:15.875Z,7592
2017-05-08T12:00:15.859Z,7580
2017-05-08T12:01:15.575Z,7452
2017-05-08T12:02:15.825Z,7616
2017-05-08T12:03:15.796Z,7868
2017-05-08T12:04:15.762Z,8132
2017-05-08T12:05:15.744Z,8188
2017-05-08T12:06:15.726Z,8080
2017-05-08T12:07:15.710Z,7748
2017-05-08T12:08:15.672Z,7432
2017-05-08T12:09:15.651Z,7240
2017-05-08T12:10:15.336Z,7108
2017-05-08T12:11:15.615Z,6912
2017-05-08T12:12:15.589Z,6920
2017-05-08T12:13:15.570Z,6420
2017-05-08T12:14:15.251Z,5964
2017-05-08T12:15:15.561Z,6100
2017-05-08T12:16:15.497Z,6868
2017-05-08T12:17:15.490Z,8292
2017-05-08T12:18:15.456Z,9540
2017-05-08T12:19:15.485Z,9596
2017-05-08T12:20:15.412Z,9136
2017-05-08T12:21:15.391Z,8596
2017-05-08T12:22:15.118Z,8388
2017-05-08T12:23:15.346Z,8072
2017-05-08T12:24:15.331Z,7508
2017-05-08T12:25:15.301Z,7516
2017-05-08T12:26:15.284Z,7916
2017-05-08T12:27:15.259Z,8272
2017-05-08T12:28:15.234Z,8260
2017-05-08T12:29:15.265Z,8348
2017-05-08T12:30:15.200Z,8244
2017-05-08T12:31:15.175Z,7952
2017-05-08T12:32:14.849Z,7644
2017-05-08T12:33:15.118Z,7804
2017-05-08T12:34:15.117Z,7676
2017-05-08T12:35:14.790Z,6760
2017-05-08T12:36:15.104Z,5584
2017-05-08T12:37:15.056Z,5616
2017-05-08T12:38:15.007Z,5888
2017-05-08T12:39:14.999Z,5136
2017-05-08T12:40:14.968Z,4312
2017-05-08T12:41:14.957Z,4256
2017-05-08T12:42:14.932Z,4948
2017-05-08T12:43:14.900Z,5504
2017-05-08T12:44:14.886Z,5452
2017-05-08T12:45:14.558Z,5576
2017-05-08T12:46:14.840Z,5588
2017-05-08T12:47:14.817Z,5520
2017-05-08T12:48:14.796Z,5632
2017-05-08T12:49:14.501Z,5576
2017-05-08T12:50:14.762Z,5856
2017-05-08T12:51:14.773Z,6692
2017-05-08T12:52:14.453Z,6736
2017-05-08T12:53:14.681Z,6608
2017-05-08T12:54:14.652Z,6416
2017-05-08T12:55:14.687Z,6228
2017-05-08T12:56:14.616Z,6072
2017-05-08T12:57:14.592Z,6268
2017-05-08T12:58:14.564Z,6324
2017-05-08T12:59:14.554Z,6344
2017-05-08T13:00:14.231Z,6140
2017-05-08T13:01:14.513Z,6344
2017-05-08T13:02:14.481Z,6464
2017-05-08T13:03:14.476Z,6148
2017-05-08T13:04:14.344Z,5864
2017-05-08T13:05:14.420Z,5872
2017-05-08T13:06:14.402Z,5512
2017-05-08T13:07:14.316Z,5340
2017-05-08T13:08:14.346Z,5644
2017-05-08T13:09:14.332Z,5600
2017-05-08T13:10:14.297Z,5416
2017-05-08T13:11:14.287Z,5460
2017-05-08T13:12:13.953Z,5584
2017-05-08T13:13:13.933Z,4960
2017-05-08T13:14:14.258Z,4932
2017-05-08T13:15:14.215Z,4892
2017-05-08T13:16:14.165Z,4880
2017-05-08T13:17:13.845Z,5172
2017-05-08T13:18:14.116Z,5484
2017-05-08T13:19:14.105Z,5656
2017-05-08T13:20:14.078Z,5904
2017-05-08T13:21:14.052Z,5976
2017-05-08T13:22:14.045Z,5904
2017-05-08T13:23:14.061Z,6660
2017-05-08T13:24:13.988Z,7604
2017-05-08T13:25:13.959Z,7188
2017-05-08T13:26:13.936Z,7000
2017-05-08T13:27:13.627Z,7624
2017-05-08T13:28:13.974Z,8596
2017-05-08T13:29:13.878Z,9704
2017-05-08T13:30:13.865Z,10040
2017-05-08T13:31:13.882Z,8064
2017-05-08T13:32:13.804Z,7304
2017-05-08T13:33:13.483Z,8024
2017-05-08T13:34:13.455Z,8256
2017-05-08T13:35:13.752Z,7184
2017-05-08T13:36:13.718Z,6304
2017-05-08T13:37:13.690Z,5516
2017-05-08T13:38:13.685Z,5620
2017-05-08T13:39:13.649Z,5972
2017-05-08T13:40:13.634Z,4888
2017-05-08T13:41:13.615Z,4220